createdAt,value
2018-11-13T00:00:06.302Z,5.47
2018-11-13T00:01:06.326Z,5.54
2018-11-13T00:02:06.356Z,5.54
2018-11-13T00:03:06.385Z,5.59
2018-11-13T00:04:06.410Z,5.61
2018-11-13T00:05:06.431Z,5.47
2018-11-13T00:06:06.457Z,5.58
2018-11-13T00:07:06.489Z,5.54
2018-11-13T00:08:06.513Z,5.51
2018-11-13T00:09:06.537Z,5.52
2018-11-13T00:10:06.565Z,5.56
2018-11-13T00:11:06.590Z,5.51
2018-11-13T00:12:06.617Z,5.51
2018-11-13T00:13:06.640Z,5.56
2018-11-13T00:14:06.667Z,5.62
2018-11-13T00:15:06.694Z,5.55
2018-11-13T00:16:06.720Z,5.55
2018-11-13T00:17:06.745Z,5.64
2018-11-13T00:18:06.771Z,5.54
2018-11-13T00:19:06.799Z,5.58
2018-11-13T00:20:06.824Z,5.55
2018-11-13T00:21:06.852Z,5.52
2018-11-13T00:22:06.876Z,5.64
2018-11-13T00:23:06.901Z,5.55
2018-11-13T00:24:07.256Z,5.58
2018-11-13T00:25:06.954Z,5.55
2018-11-13T00:26:06.981Z,5.55
2018-11-13T00:27:07.006Z,5.62
2018-11-13T00:28:07.032Z,5.55
2018-11-13T00:29:07.057Z,5.61
2018-11-13T00:30:07.084Z,5.55
2018-11-13T00:31:07.110Z,5.56
2018-11-13T00:32:07.137Z,5.56
2018-11-13T00:33:07.164Z,5.62
2018-11-13T00:34:07.189Z,5.56
2018-11-13T00:35:07.216Z,5.55
2018-11-13T00:36:07.241Z,5.59
2018-11-13T00:37:07.266Z,5.49
2018-11-13T00:38:07.293Z,5.58
2018-11-13T00:39:07.351Z,5.54
2018-11-13T00:40:07.348Z,5.62
2018-11-13T00:41:07.377Z,5.52
2018-11-13T00:42:07.398Z,5.56
2018-11-13T00:43:07.424Z,5.52
2018-11-13T00:44:07.451Z,5.58
2018-11-13T00:45:07.477Z,5.58
2018-11-13T00:46:07.590Z,5.55
2018-11-13T00:47:07.529Z,5.52
2018-11-13T00:48:07.556Z,5.76
2018-11-13T00:49:07.581Z,5.59
2018-11-13T00:50:07.609Z,5.58
2018-11-13T00:51:07.634Z,5.61
2018-11-13T00:52:07.659Z,5.58
2018-11-13T00:53:07.689Z,5.62
2018-11-13T00:54:07.710Z,5.55
2018-11-13T00:55:07.739Z,5.62
2018-11-13T00:56:07.765Z,5.62
2018-11-13T00:57:07.794Z,5.64
2018-11-13T00:58:07.819Z,5.56
2018-11-13T00:59:07.844Z,5.56
2018-11-13T01:00:07.870Z,5.56
2018-11-13T01:01:07.895Z,5.56
2018-11-13T01:02:08.380Z,5.61
2018-11-13T01:03:07.951Z,5.65
2018-11-13T01:04:07.974Z,5.69
2018-11-13T01:05:08.059Z,5.67
2018-11-13T01:06:08.027Z,5.72
2018-11-13T01:07:08.053Z,5.69
2018-11-13T01:08:08.079Z,5.62
2018-11-13T01:09:08.105Z,5.72
2018-11-13T01:10:08.131Z,5.65
2018-11-13T01:11:08.160Z,5.77
2018-11-13T01:12:08.186Z,5.65
2018-11-13T01:13:08.210Z,5.72
2018-11-13T01:14:08.237Z,5.76
2018-11-13T01:15:08.870Z,5.77
2018-11-13T01:16:08.293Z,5.72
2018-11-13T01:17:08.314Z,5.74
2018-11-13T01:18:08.341Z,5.77
2018-11-13T01:19:08.368Z,5.77
2018-11-13T01:20:08.398Z,5.80
2018-11-13T01:21:08.421Z,5.81
2018-11-13T01:22:08.448Z,5.74
2018-11-13T01:23:08.476Z,5.79
2018-11-13T01:24:08.502Z,5.83
2018-11-13T01:25:08.529Z,5.83
2018-11-13T01:26:08.554Z,5.88
2018-11-13T01:27:08.577Z,5.90
2018-11-13T01:28:08.613Z,5.81
2018-11-13T01:29:08.629Z,5.88
2018-11-13T01:30:08.659Z,5.91
2018-11-13T01:31:08.683Z,5.90
2018-11-13T01:32:08.710Z,5.87
2018-11-13T01:33:08.736Z,5.88
2018-11-13T01:34:08.761Z,5.84
2018-11-13T01:35:08.789Z,5.88
2018-11-13T01:36:08.819Z,5.88
2018-11-13T01:37:08.841Z,5.88
2018-11-13T01:38:08.867Z,5.94
2018-11-13T01:39:08.902Z,5.95
2018-11-13T01:40:08.920Z,5.92
2018-11-13T01:41:08.946Z,5.99
2018-11-13T01:42:08.973Z,5.99
2018-11-13T01:43:08.998Z,5.94
2018-11-13T01:44:09.033Z,5.99
2018-11-13T01:45:09.052Z,5.91
2018-11-13T01:46:09.079Z,6.05
2018-11-13T01:47:09.105Z,6.10
2018-11-13T01:48:09.780Z,5.95
2018-11-13T01:49:09.159Z,6.01
2018-11-13T01:50:09.184Z,6.05
2018-11-13T01:51:09.210Z,6.05
2018-11-13T01:52:09.238Z,6.12
2018-11-13T01:53:09.262Z,6.09
2018-11-13T01:54:09.350Z,6.09
2018-11-13T01:55:09.319Z,6.06
2018-11-13T01:56:09.346Z,6.12
2018-11-13T01:57:09.421Z,6.13
2018-11-13T01:58:09.398Z,6.13
2018-11-13T01:59:09.425Z,6.13
2018-11-13T02:00:09.452Z,6.15
2018-11-13T02:01:09.475Z,6.15
2018-11-13T02:02:09.502Z,6.28
2018-11-13T02:03:09.532Z,6.19
2018-11-13T02:04:09.556Z,6.20
2018-11-13T02:05:09.581Z,6.20
2018-11-13T02:06:09.609Z,6.16
2018-11-13T02:07:09.637Z,6.25
2018-11-13T02:08:09.663Z,6.31
2018-11-13T02:09:09.690Z,6.25
2018-11-13T02:10:09.716Z,6.32
2018-11-13T02:11:09.742Z,6.34
2018-11-13T02:12:09.771Z,6.28
2018-11-13T02:13:09.794Z,6.25
2018-11-13T02:14:09.820Z,6.38
2018-11-13T02:15:09.850Z,6.35
2018-11-13T02:16:09.875Z,6.32
2018-11-13T02:17:09.900Z,6.34
2018-11-13T02:18:09.928Z,6.31
2018-11-13T02:19:09.954Z,6.34
2018-11-13T02:20:09.984Z,6.38
2018-11-13T02:21:10.007Z,6.31
2018-11-13T02:22:10.034Z,6.47
2018-11-13T02:23:10.061Z,6.39
2018-11-13T02:24:10.092Z,6.43
2018-11-13T02:25:10.113Z,6.41
2018-11-13T02:26:10.141Z,6.32
2018-11-13T02:27:10.173Z,6.44
2018-11-13T02:28:10.195Z,6.36
2018-11-13T02:29:10.220Z,6.34
2018-11-13T02:30:10.251Z,6.38
2018-11-13T02:31:10.277Z,6.53
2018-11-13T02:32:10.302Z,6.53
2018-11-13T02:33:10.331Z,6.50
2018-11-13T02:34:10.357Z,6.46
2018-11-13T02:35:10.408Z,6.53
2018-11-13T02:36:10.412Z,6.50
2018-11-13T02:37:10.447Z,6.43
2018-11-13T02:38:10.464Z,6.52
2018-11-13T02:39:10.490Z,6.54
2018-11-13T02:40:10.521Z,6.54
2018-11-13T02:41:10.544Z,6.49
2018-11-13T02:42:10.569Z,6.43
2018-11-13T02:43:10.598Z,6.54
2018-11-13T02:44:10.631Z,6.56
2018-11-13T02:45:10.656Z,6.52
2018-11-13T02:46:10.677Z,6.54
2018-11-13T02:47:10.706Z,6.59
2018-11-13T02:48:10.734Z,6.60
2018-11-13T02:49:10.765Z,6.60
2018-11-13T02:50:10.788Z,6.54
2018-11-13T02:51:10.811Z,6.59
2018-11-13T02:52:10.843Z,6.62
2018-11-13T02:53:10.868Z,6.59
2018-11-13T02:54:10.896Z,6.53
2018-11-13T02:55:10.922Z,6.57
2018-11-13T02:56:10.948Z,6.54
2018-11-13T02:57:10.975Z,6.59
2018-11-13T02:58:10.999Z,6.59
2018-11-13T02:59:11.027Z,6.62
2018-11-13T03:00:11.087Z,6.71
2018-11-13T03:01:11.083Z,6.72
2018-11-13T03:02:11.108Z,6.67
2018-11-13T03:03:11.135Z,6.68
2018-11-13T03:04:11.167Z,6.74
2018-11-13T03:05:11.189Z,6.70
2018-11-13T03:06:11.216Z,6.70
2018-11-13T03:07:11.243Z,6.72
2018-11-13T03:08:11.276Z,6.67
2018-11-13T03:09:11.300Z,6.67
2018-11-13T03:10:11.324Z,6.75
2018-11-13T03:11:11.351Z,6.75
2018-11-13T03:12:11.381Z,6.71
2018-11-13T03:13:11.477Z,6.72
2018-11-13T03:14:11.436Z,6.78
2018-11-13T03:15:11.469Z,6.89
2018-11-13T03:16:11.492Z,6.77
2018-11-13T03:17:11.512Z,6.82
2018-11-13T03:18:11.540Z,6.83
2018-11-13T03:19:11.567Z,6.85
2018-11-13T03:20:11.592Z,6.83
2018-11-13T03:21:11.624Z,6.85
2018-11-13T03:22:11.647Z,6.83
2018-11-13T03:23:11.675Z,6.83
2018-11-13T03:24:11.705Z,6.89
2018-11-13T03:25:11.730Z,6.86
2018-11-13T03:26:11.755Z,6.87
2018-11-13T03:27:11.781Z,6.85
2018-11-13T03:28:11.810Z,6.90
2018-11-13T03:29:11.835Z,6.87
2018-11-13T03:30:11.865Z,6.92
2018-11-13T03:31:11.899Z,6.86
2018-11-13T03:32:11.924Z,6.92
2018-11-13T03:33:11.943Z,6.86
2018-11-13T03:34:11.971Z,6.89
2018-11-13T03:35:12.000Z,6.90
2018-11-13T03:36:12.026Z,6.86
2018-11-13T03:37:12.055Z,6.90
2018-11-13T03:38:12.080Z,6.89
2018-11-13T03:39:12.107Z,6.90
2018-11-13T03:40:12.134Z,6.89
2018-11-13T03:41:12.162Z,6.89
2018-11-13T03:42:12.187Z,6.92
2018-11-13T03:43:12.218Z,6.86
2018-11-13T03:44:12.242Z,6.85
2018-11-13T03:45:12.271Z,6.86
2018-11-13T03:46:12.299Z,6.89
2018-11-13T03:47:12.325Z,6.95
2018-11-13T03:48:12.350Z,6.89
2018-11-13T03:49:12.377Z,6.87
2018-11-13T03:50:12.409Z,6.89
2018-11-13T03:51:12.432Z,6.89
2018-11-13T03:52:12.458Z,6.90
2018-11-13T03:53:12.485Z,6.90
2018-11-13T03:54:12.517Z,6.92
2018-11-13T03:55:12.538Z,6.90
2018-11-13T03:56:12.569Z,6.90
2018-11-13T03:57:12.591Z,6.97
2018-11-13T03:58:12.621Z,6.96
2018-11-13T03:59:12.650Z,6.87
2018-11-13T04:00:12.678Z,6.95
2018-11-13T04:01:12.710Z,6.97
2018-11-13T04:02:12.728Z,6.92
2018-11-13T04:03:12.754Z,6.97
2018-11-13T04:04:12.784Z,7.04
2018-11-13T04:05:12.813Z,7.04
2018-11-13T04:06:12.835Z,6.97
2018-11-13T04:07:12.863Z,7.07
2018-11-13T04:08:12.892Z,7.01
2018-11-13T04:09:12.918Z,7.04
2018-11-13T04:10:12.952Z,7.07
2018-11-13T04:11:12.974Z,7.01
2018-11-13T04:12:12.999Z,7.08
2018-11-13T04:13:13.029Z,7.14
2018-11-13T04:14:13.052Z,7.13
2018-11-13T04:15:13.085Z,7.19
2018-11-13T04:16:13.111Z,7.11
2018-11-13T04:17:13.134Z,7.15
2018-11-13T04:18:13.162Z,7.15
2018-11-13T04:19:13.189Z,7.19
2018-11-13T04:20:13.216Z,7.15
2018-11-13T04:21:13.246Z,7.19
2018-11-13T04:22:13.269Z,7.11
2018-11-13T04:23:13.297Z,7.18
2018-11-13T04:24:13.327Z,7.14
2018-11-13T04:25:13.352Z,7.14
2018-11-13T04:26:13.381Z,7.10
2018-11-13T04:27:13.405Z,7.25
2018-11-13T04:28:13.440Z,7.18
2018-11-13T04:29:13.460Z,7.22
2018-11-13T04:30:13.491Z,7.18
2018-11-13T04:31:13.515Z,7.25
2018-11-13T04:32:13.543Z,7.22
2018-11-13T04:33:13.574Z,7.23
2018-11-13T04:34:13.598Z,7.31
2018-11-13T04:35:13.624Z,7.31
2018-11-13T04:36:13.652Z,7.25
2018-11-13T04:37:13.681Z,7.26
2018-11-13T04:38:13.706Z,7.29
2018-11-13T04:39:13.736Z,7.29
2018-11-13T04:40:13.764Z,7.26
2018-11-13T04:41:13.787Z,7.40
2018-11-13T04:42:13.817Z,7.36
2018-11-13T04:43:13.843Z,7.40
2018-11-13T04:44:13.876Z,7.32
2018-11-13T04:45:13.895Z,7.36
2018-11-13T04:46:13.926Z,7.39
2018-11-13T04:47:13.957Z,7.37
2018-11-13T04:48:13.979Z,7.37
2018-11-13T04:49:14.006Z,7.32
2018-11-13T04:50:14.036Z,7.32
2018-11-13T04:51:14.061Z,7.36
2018-11-13T04:52:14.089Z,7.40
2018-11-13T04:53:14.115Z,7.36
2018-11-13T04:54:14.143Z,7.32
2018-11-13T04:55:14.175Z,7.33
2018-11-13T04:56:14.198Z,7.40
2018-11-13T04:57:14.223Z,7.39
2018-11-13T04:58:14.255Z,7.37
2018-11-13T04:59:14.280Z,7.31
2018-11-13T05:00:14.310Z,7.36
2018-11-13T05:01:14.334Z,7.33
2018-11-13T05:02:14.361Z,7.41
2018-11-13T05:03:14.389Z,7.36
2018-11-13T05:04:14.417Z,7.39
2018-11-13T05:05:14.450Z,7.37
2018-11-13T05:06:14.471Z,7.43
2018-11-13T05:07:14.500Z,7.37
2018-11-13T05:08:14.527Z,7.36
2018-11-13T05:09:14.553Z,7.40
2018-11-13T05:10:14.689Z,7.41
2018-11-13T05:11:14.609Z,7.41
2018-11-13T05:12:14.638Z,7.43
2018-11-13T05:13:14.662Z,7.41
2018-11-13T05:14:14.693Z,7.39
2018-11-13T05:15:14.717Z,7.47
2018-11-13T05:16:14.746Z,7.51
2018-11-13T05:17:14.772Z,7.50
2018-11-13T05:18:14.800Z,7.46
2018-11-13T05:19:14.829Z,7.50
2018-11-13T05:20:14.855Z,7.44
2018-11-13T05:21:14.884Z,7.50
2018-11-13T05:22:14.909Z,7.47
2018-11-13T05:23:15.071Z,7.51
2018-11-13T05:24:14.969Z,7.44
2018-11-13T05:25:14.994Z,7.50
2018-11-13T05:26:15.022Z,7.41
2018-11-13T05:27:15.048Z,7.59
2018-11-13T05:28:15.075Z,7.59
2018-11-13T05:29:15.106Z,7.53
2018-11-13T05:30:15.132Z,7.53
2018-11-13T05:31:15.159Z,7.51
2018-11-13T05:32:15.188Z,7.48
2018-11-13T05:33:15.212Z,7.50
2018-11-13T05:34:15.241Z,7.56
2018-11-13T05:35:15.274Z,7.46
2018-11-13T05:36:15.300Z,7.58
2018-11-13T05:37:15.322Z,7.56
2018-11-13T05:38:15.352Z,7.53
2018-11-13T05:39:15.381Z,7.53
2018-11-13T05:40:15.406Z,7.51
2018-11-13T05:41:15.432Z,7.53
2018-11-13T05:42:15.460Z,7.51
2018-11-13T05:43:15.491Z,7.56
2018-11-13T05:44:15.515Z,7.58
2018-11-13T05:45:15.554Z,7.58
2018-11-13T05:46:15.569Z,7.53
2018-11-13T05:47:15.653Z,7.50
2018-11-13T05:48:15.624Z,7.58
2018-11-13T05:49:15.655Z,7.55
2018-11-13T05:50:15.685Z,7.62
2018-11-13T05:51:15.708Z,7.58
2018-11-13T05:52:15.738Z,7.59
2018-11-13T05:53:15.765Z,7.51
2018-11-13T05:54:15.791Z,7.61
2018-11-13T05:55:15.820Z,7.61
2018-11-13T05:56:15.851Z,7.66
2018-11-13T05:57:15.873Z,7.72
2018-11-13T05:58:15.901Z,7.61
2018-11-13T05:59:15.932Z,7.56
2018-11-13T06:00:15.957Z,7.66
2018-11-13T06:01:15.988Z,7.69
2018-11-13T06:02:16.011Z,7.64
2018-11-13T06:03:16.039Z,7.72
2018-11-13T06:04:16.068Z,7.66
2018-11-13T06:05:16.097Z,7.66
2018-11-13T06:06:16.123Z,7.62
2018-11-13T06:07:16.151Z,7.67
2018-11-13T06:08:16.215Z,7.70
2018-11-13T06:09:16.203Z,7.70
2018-11-13T06:10:16.234Z,7.70
2018-11-13T06:11:16.259Z,7.67
2018-11-13T06:12:16.293Z,7.74
2018-11-13T06:13:16.314Z,7.69
2018-11-13T06:14:16.462Z,7.69
2018-11-13T06:15:16.375Z,7.67
2018-11-13T06:16:16.397Z,7.67
2018-11-13T06:17:16.426Z,7.72
2018-11-13T06:18:16.496Z,7.69
2018-11-13T06:19:16.480Z,7.72
2018-11-13T06:20:16.509Z,7.70
2018-11-13T06:21:16.572Z,7.70
2018-11-13T06:22:16.566Z,7.75
2018-11-13T06:23:16.594Z,7.85
2018-11-13T06:24:16.621Z,7.83
2018-11-13T06:25:16.648Z,7.90
2018-11-13T06:26:16.679Z,7.88
2018-11-13T06:27:16.703Z,7.87
2018-11-13T06:28:16.734Z,7.83
2018-11-13T06:29:16.758Z,7.81
2018-11-13T06:30:16.791Z,7.88
2018-11-13T06:31:16.814Z,7.84
2018-11-13T06:32:16.844Z,7.91
2018-11-13T06:33:16.868Z,7.81
2018-11-13T06:34:16.903Z,7.87
2018-11-13T06:35:16.931Z,7.99
2018-11-13T06:36:16.953Z,7.85
2018-11-13T06:37:16.979Z,7.96
2018-11-13T06:38:17.006Z,7.98
2018-11-13T06:39:17.036Z,7.99
2018-11-13T06:40:17.066Z,7.95
2018-11-13T06:41:17.092Z,7.98
2018-11-13T06:42:17.122Z,7.95
2018-11-13T06:43:17.149Z,7.99
2018-11-13T06:44:17.174Z,8.03
2018-11-13T06:45:17.209Z,8.02
2018-11-13T06:46:17.233Z,7.96
2018-11-13T06:47:17.258Z,8.06
2018-11-13T06:48:17.289Z,8.03
2018-11-13T06:49:17.365Z,8.02
2018-11-13T06:50:17.340Z,8.06
2018-11-13T06:51:17.371Z,8.02
2018-11-13T06:52:17.404Z,8.05
2018-11-13T06:53:17.424Z,8.06
2018-11-13T06:54:17.451Z,8.03
2018-11-13T06:55:17.481Z,8.08
2018-11-13T06:56:17.507Z,8.03
2018-11-13T06:57:17.535Z,8.02
2018-11-13T06:58:17.564Z,8.06
2018-11-13T06:59:17.591Z,8.02
2018-11-13T07:00:17.621Z,8.06
2018-11-13T07:01:17.647Z,8.06
2018-11-13T07:02:17.674Z,8.09
2018-11-13T07:03:17.701Z,8.06
2018-11-13T07:04:17.732Z,8.11
2018-11-13T07:05:17.775Z,8.20
2018-11-13T07:06:17.786Z,8.13
2018-11-13T07:07:17.815Z,8.18
2018-11-13T07:08:17.845Z,8.17
2018-11-13T07:09:17.871Z,8.17
2018-11-13T07:10:17.901Z,8.16
2018-11-13T07:11:17.949Z,8.14
2018-11-13T07:12:17.954Z,8.20
2018-11-13T07:13:17.983Z,8.20
2018-11-13T07:14:18.014Z,8.14
2018-11-13T07:15:18.041Z,8.16
2018-11-13T07:16:18.069Z,8.11
2018-11-13T07:17:18.095Z,8.20
2018-11-13T07:18:18.142Z,8.16
2018-11-13T07:19:18.150Z,8.16
2018-11-13T07:20:18.177Z,8.24
2018-11-13T07:21:18.205Z,8.16
2018-11-13T07:22:18.235Z,8.26
2018-11-13T07:23:18.260Z,8.27
2018-11-13T07:24:18.289Z,8.14
2018-11-13T07:25:18.361Z,8.31
2018-11-13T07:26:18.345Z,8.32
2018-11-13T07:27:18.423Z,8.32
2018-11-13T07:28:18.407Z,8.32
2018-11-13T07:29:18.429Z,8.32
2018-11-13T07:30:18.469Z,8.32
2018-11-13T07:31:18.526Z,8.34
2018-11-13T07:32:18.514Z,8.24
2018-11-13T07:33:18.540Z,8.36
2018-11-13T07:34:18.617Z,8.36
2018-11-13T07:35:18.597Z,8.26
2018-11-13T07:36:18.625Z,8.31
2018-11-13T07:37:18.652Z,8.23
2018-11-13T07:38:18.680Z,8.44
2018-11-13T07:39:18.715Z,8.39
2018-11-13T07:40:18.743Z,8.39
2018-11-13T07:41:18.768Z,8.39
2018-11-13T07:42:18.794Z,8.35
2018-11-13T07:43:18.822Z,8.36
2018-11-13T07:44:18.851Z,8.36
2018-11-13T07:45:18.879Z,8.39
2018-11-13T07:46:18.910Z,8.39
2018-11-13T07:47:19.072Z,8.38
2018-11-13T07:48:18.966Z,8.42
2018-11-13T07:49:18.993Z,8.42
2018-11-13T07:50:19.019Z,8.46
2018-11-13T07:51:19.099Z,8.41
2018-11-13T07:52:19.079Z,8.53
2018-11-13T07:53:19.106Z,8.44
2018-11-13T07:54:19.135Z,8.50
2018-11-13T07:55:19.163Z,8.36
2018-11-13T07:56:19.191Z,8.36
2018-11-13T07:57:19.215Z,8.36
2018-11-13T07:58:19.279Z,8.49
2018-11-13T07:59:19.277Z,8.35
2018-11-13T08:00:19.302Z,8.44
2018-11-13T08:01:19.330Z,8.53
2018-11-13T08:02:19.359Z,8.50
2018-11-13T08:03:19.426Z,8.42
2018-11-13T08:04:19.477Z,8.50
2018-11-13T08:05:19.447Z,8.38
2018-11-13T08:06:19.558Z,8.49
2018-11-13T08:07:19.523Z,8.38
2018-11-13T08:08:19.528Z,8.45
2018-11-13T08:09:19.609Z,8.41
2018-11-13T08:10:19.592Z,8.52
2018-11-13T08:11:19.613Z,8.42
2018-11-13T08:12:19.641Z,8.36
2018-11-13T08:13:19.842Z,8.35
2018-11-13T08:14:19.698Z,8.34
2018-11-13T08:15:19.725Z,8.36
2018-11-13T08:16:19.778Z,8.39
2018-11-13T08:17:19.780Z,8.34
2018-11-13T08:18:19.814Z,8.38
2018-11-13T08:19:19.837Z,8.35
2018-11-13T08:20:19.865Z,8.38
2018-11-13T08:21:19.897Z,8.32
2018-11-13T08:22:20.014Z,8.36
2018-11-13T08:23:19.954Z,8.41
2018-11-13T08:24:19.981Z,8.36
2018-11-13T08:25:20.052Z,8.35
2018-11-13T08:26:20.045Z,8.39
2018-11-13T08:27:20.063Z,8.53
2018-11-13T08:28:20.214Z,8.52
2018-11-13T08:29:20.186Z,8.54
2018-11-13T08:30:20.151Z,8.56
2018-11-13T08:31:20.199Z,8.45
2018-11-13T08:32:20.202Z,8.49
2018-11-13T08:33:20.233Z,8.44
2018-11-13T08:34:20.258Z,8.56
2018-11-13T08:35:20.289Z,8.56
2018-11-13T08:36:20.317Z,8.50
2018-11-13T08:37:20.350Z,8.52
2018-11-13T08:38:20.371Z,8.59
2018-11-13T08:39:20.400Z,8.59
2018-11-13T08:40:20.429Z,8.68
2018-11-13T08:41:20.459Z,8.64
2018-11-13T08:42:20.486Z,8.60
2018-11-13T08:43:20.516Z,8.68
2018-11-13T08:44:20.736Z,8.71
2018-11-13T08:45:20.570Z,8.68
2018-11-13T08:46:20.599Z,8.74
2018-11-13T08:47:20.627Z,8.71
2018-11-13T08:48:20.654Z,8.77
2018-11-13T08:49:20.682Z,8.69
2018-11-13T08:50:20.774Z,8.84
2018-11-13T08:51:20.742Z,8.78
2018-11-13T08:52:20.769Z,8.81
2018-11-13T08:53:20.797Z,8.78
2018-11-13T08:54:20.826Z,8.86
2018-11-13T08:55:20.854Z,8.79
2018-11-13T08:56:20.887Z,8.87
2018-11-13T08:57:20.910Z,8.93
2018-11-13T08:58:20.991Z,8.89
2018-11-13T08:59:21.111Z,8.90
2018-11-13T09:00:20.996Z,8.96
2018-11-13T09:01:21.023Z,8.90
2018-11-13T09:02:21.054Z,8.92
2018-11-13T09:03:21.082Z,8.89
2018-11-13T09:04:21.112Z,8.99
2018-11-13T09:05:21.141Z,8.99
2018-11-13T09:06:21.170Z,8.97
2018-11-13T09:07:21.232Z,8.96
2018-11-13T09:08:21.226Z,9.02
2018-11-13T09:09:21.255Z,9.00
2018-11-13T09:10:21.283Z,9.03
2018-11-13T09:11:21.365Z,9.05
2018-11-13T09:12:21.443Z,8.97
2018-11-13T09:13:21.373Z,8.97
2018-11-13T09:14:21.396Z,8.96
2018-11-13T09:15:21.429Z,9.08
2018-11-13T09:16:21.456Z,9.09
2018-11-13T09:17:21.484Z,9.08
2018-11-13T09:18:21.512Z,9.11
2018-11-13T09:19:21.705Z,9.05
2018-11-13T09:20:21.571Z,9.11
2018-11-13T09:21:21.597Z,9.09
2018-11-13T09:22:21.628Z,9.09
2018-11-13T09:23:21.664Z,9.11
2018-11-13T09:24:21.683Z,9.15
2018-11-13T09:25:21.718Z,9.13
2018-11-13T09:26:21.746Z,9.00
2018-11-13T09:27:21.770Z,9.08
2018-11-13T09:28:21.798Z,9.05
2018-11-13T09:29:21.826Z,9.09
2018-11-13T09:30:22.065Z,9.21
2018-11-13T09:31:21.952Z,9.21
2018-11-13T09:32:21.914Z,9.16
2018-11-13T09:33:21.944Z,9.15
2018-11-13T09:34:21.972Z,9.19
2018-11-13T09:35:22.014Z,9.18
2018-11-13T09:36:22.029Z,9.16
2018-11-13T09:37:22.109Z,9.12
2018-11-13T09:38:22.086Z,9.22
2018-11-13T09:39:22.179Z,9.26
2018-11-13T09:40:22.144Z,9.30
2018-11-13T09:41:22.172Z,9.26
2018-11-13T09:42:22.205Z,9.26
2018-11-13T09:43:22.233Z,9.27
2018-11-13T09:44:22.260Z,9.39
2018-11-13T09:45:22.288Z,9.29
2018-11-13T09:46:22.321Z,9.34
2018-11-13T09:47:22.347Z,9.34
2018-11-13T09:48:22.378Z,9.40
2018-11-13T09:49:22.406Z,9.39
2018-11-13T09:50:22.434Z,9.47
2018-11-13T09:51:22.466Z,9.40
2018-11-13T09:52:22.493Z,9.47
2018-11-13T09:53:22.605Z,9.40
2018-11-13T09:54:22.554Z,9.48
2018-11-13T09:55:22.578Z,9.42
2018-11-13T09:56:22.629Z,9.44
2018-11-13T09:57:22.639Z,9.44
2018-11-13T09:58:22.667Z,9.44
2018-11-13T09:59:22.704Z,9.48
2018-11-13T10:00:22.813Z,9.44
2018-11-13T10:01:22.954Z,9.49
2018-11-13T10:02:23.405Z,9.44
2018-11-13T10:03:23.592Z,9.47
2018-11-13T10:04:23.590Z,9.49
2018-11-13T10:05:22.934Z,9.44
2018-11-13T10:06:22.899Z,9.44
2018-11-13T10:07:22.929Z,9.47
2018-11-13T10:08:22.959Z,9.37
2018-11-13T10:09:22.989Z,9.47
2018-11-13T10:10:23.058Z,9.51
2018-11-13T10:11:23.046Z,9.52
2018-11-13T10:12:23.078Z,9.58
2018-11-13T10:13:23.105Z,9.59
2018-11-13T10:14:23.131Z,9.66
2018-11-13T10:15:23.161Z,9.59
2018-11-13T10:16:23.244Z,9.56
2018-11-13T10:17:23.239Z,9.58
2018-11-13T10:18:23.341Z,9.63
2018-11-13T10:19:23.277Z,9.59
2018-11-13T10:20:23.308Z,9.56
2018-11-13T10:21:23.339Z,9.58
2018-11-13T10:22:23.368Z,9.59
2018-11-13T10:23:23.402Z,9.59
2018-11-13T10:24:23.428Z,9.56
2018-11-13T10:25:23.459Z,9.56
2018-11-13T10:26:23.680Z,9.55
2018-11-13T10:27:23.512Z,9.63
2018-11-13T10:28:23.542Z,9.55
2018-11-13T10:29:23.576Z,9.54
2018-11-13T10:30:23.599Z,9.59
2018-11-13T10:31:23.628Z,9.69
2018-11-13T10:32:23.659Z,9.67
2018-11-13T10:33:23.692Z,9.67
2018-11-13T10:34:23.717Z,9.72
2018-11-13T10:35:23.745Z,9.67
2018-11-13T10:36:23.776Z,9.73
2018-11-13T10:37:23.805Z,9.70
2018-11-13T10:38:23.834Z,9.73
2018-11-13T10:39:23.864Z,9.73
2018-11-13T10:40:24.059Z,9.72
2018-11-13T10:41:23.976Z,9.67
2018-11-13T10:42:23.952Z,9.69
2018-11-13T10:43:23.982Z,9.74
2018-11-13T10:44:24.014Z,9.67
2018-11-13T10:45:24.039Z,9.72
2018-11-13T10:46:24.068Z,9.67
2018-11-13T10:47:24.101Z,9.67
2018-11-13T10:48:24.128Z,9.72
2018-11-13T10:49:24.158Z,9.59
2018-11-13T10:50:24.308Z,9.66
2018-11-13T10:51:24.215Z,9.59
2018-11-13T10:52:24.245Z,9.55
2018-11-13T10:53:24.278Z,9.55
2018-11-13T10:54:24.308Z,9.63
2018-11-13T10:55:24.334Z,9.66
2018-11-13T10:56:24.471Z,9.54
2018-11-13T10:57:24.391Z,9.58
2018-11-13T10:58:24.423Z,9.62
2018-11-13T10:59:24.453Z,9.58
2018-11-13T11:00:24.481Z,9.56
2018-11-13T11:01:24.509Z,9.52
2018-11-13T11:02:24.618Z,9.64
2018-11-13T11:03:24.574Z,9.62
2018-11-13T11:04:24.617Z,9.64
2018-11-13T11:05:24.628Z,9.54
2018-11-13T11:06:24.659Z,9.62
2018-11-13T11:07:24.684Z,9.72
2018-11-13T11:08:24.799Z,9.69
2018-11-13T11:09:24.742Z,9.59
2018-11-13T11:10:24.773Z,9.66
2018-11-13T11:11:24.857Z,9.67
2018-11-13T11:12:24.831Z,9.66
2018-11-13T11:13:24.998Z,9.67
2018-11-13T11:14:24.890Z,9.64
2018-11-13T11:15:24.919Z,9.62
2018-11-13T11:16:24.948Z,9.66
2018-11-13T11:17:24.983Z,9.62
2018-11-13T11:18:25.008Z,9.62
2018-11-13T11:19:25.162Z,9.62
2018-11-13T11:20:25.068Z,9.62
2018-11-13T11:21:25.093Z,9.58
2018-11-13T11:22:25.127Z,9.63
2018-11-13T11:23:25.193Z,9.55
2018-11-13T11:24:25.183Z,9.62
2018-11-13T11:25:25.288Z,9.56
2018-11-13T11:26:25.316Z,9.54
2018-11-13T11:27:25.272Z,9.55
2018-11-13T11:28:25.307Z,9.58
2018-11-13T11:29:25.332Z,9.62
2018-11-13T11:30:25.363Z,9.59
2018-11-13T11:31:25.389Z,9.55
2018-11-13T11:32:25.418Z,9.55
2018-11-13T11:33:25.449Z,9.58
2018-11-13T11:34:25.476Z,9.59
2018-11-13T11:35:25.507Z,9.54
2018-11-13T11:36:25.535Z,9.64
2018-11-13T11:37:25.562Z,9.62
2018-11-13T11:38:25.637Z,9.62
2018-11-13T11:39:25.625Z,9.62
2018-11-13T11:40:25.652Z,9.56
2018-11-13T11:41:25.680Z,9.54
2018-11-13T11:42:25.712Z,9.59
2018-11-13T11:43:25.739Z,9.62
2018-11-13T11:44:25.873Z,9.56
2018-11-13T11:45:25.800Z,9.64
2018-11-13T11:46:25.829Z,9.55
2018-11-13T11:47:25.857Z,9.54
2018-11-13T11:48:25.885Z,9.56
2018-11-13T11:49:25.915Z,9.56
2018-11-13T11:50:25.946Z,9.59
2018-11-13T11:51:25.974Z,9.55
2018-11-13T11:52:26.006Z,9.62
2018-11-13T11:53:26.032Z,9.58
2018-11-13T11:54:26.066Z,9.58
2018-11-13T11:55:26.090Z,9.64
2018-11-13T11:56:26.123Z,9.54
2018-11-13T11:57:26.151Z,9.70
2018-11-13T11:58:26.179Z,9.63
2018-11-13T11:59:26.214Z,9.72
2018-11-13T12:00:26.262Z,9.73
2018-11-13T12:01:26.266Z,9.66
2018-11-13T12:02:26.296Z,9.66
2018-11-13T12:03:26.324Z,9.67
2018-11-13T12:04:26.355Z,9.67
2018-11-13T12:05:26.386Z,9.72
2018-11-13T12:06:26.421Z,9.66
2018-11-13T12:07:26.444Z,9.63
2018-11-13T12:08:26.474Z,9.69
2018-11-13T12:09:26.502Z,9.72
2018-11-13T12:10:26.534Z,9.63
2018-11-13T12:11:26.561Z,9.66
2018-11-13T12:12:26.734Z,9.64
2018-11-13T12:13:26.619Z,9.67
2018-11-13T12:14:26.648Z,9.69
2018-11-13T12:15:26.677Z,9.70
2018-11-13T12:16:26.707Z,9.74
2018-11-13T12:17:26.736Z,9.72
2018-11-13T12:18:26.769Z,9.74
2018-11-13T12:19:26.856Z,9.69
2018-11-13T12:20:26.828Z,9.70
2018-11-13T12:21:26.853Z,9.76
2018-11-13T12:22:26.885Z,9.67
2018-11-13T12:23:26.914Z,9.70
2018-11-13T12:24:26.944Z,9.69
2018-11-13T12:25:26.971Z,9.67
2018-11-13T12:26:27.002Z,9.70
2018-11-13T12:27:27.033Z,9.63
2018-11-13T12:28:27.061Z,9.64
2018-11-13T12:29:27.090Z,9.66
2018-11-13T12:30:27.119Z,9.64
2018-11-13T12:31:27.152Z,9.66
2018-11-13T12:32:27.178Z,9.73
2018-11-13T12:33:27.207Z,9.67
2018-11-13T12:34:27.241Z,9.72
2018-11-13T12:35:27.267Z,9.67
2018-11-13T12:36:27.296Z,9.67
2018-11-13T12:37:27.325Z,9.73
2018-11-13T12:38:27.354Z,9.70
2018-11-13T12:39:27.384Z,9.66
2018-11-13T12:40:27.414Z,9.70
2018-11-13T12:41:27.443Z,9.70
2018-11-13T12:42:27.475Z,9.72
2018-11-13T12:43:27.502Z,9.69
2018-11-13T12:44:27.532Z,9.77
2018-11-13T12:45:27.562Z,9.73
2018-11-13T12:46:27.624Z,9.72
2018-11-13T12:47:27.619Z,9.73
2018-11-13T12:48:27.653Z,9.73
2018-11-13T12:49:27.733Z,9.74
2018-11-13T12:50:27.713Z,9.70
2018-11-13T12:51:27.744Z,9.67
2018-11-13T12:52:27.768Z,9.69
2018-11-13T12:53:27.795Z,9.72
2018-11-13T12:54:27.828Z,9.72
2018-11-13T12:55:27.866Z,9.72
2018-11-13T12:56:27.973Z,9.73
2018-11-13T12:57:27.915Z,9.73
2018-11-13T12:58:27.942Z,9.72
2018-11-13T12:59:27.976Z,9.73
2018-11-13T13:00:28.005Z,9.72
2018-11-13T13:01:28.030Z,9.70
2018-11-13T13:02:28.060Z,9.72
2018-11-13T13:03:28.093Z,9.74
2018-11-13T13:04:28.121Z,9.67
2018-11-13T13:05:28.149Z,9.73
2018-11-13T13:06:28.177Z,9.69
2018-11-13T13:07:28.207Z,9.67
2018-11-13T13:08:28.262Z,9.73
2018-11-13T13:09:28.267Z,9.72
2018-11-13T13:10:28.295Z,9.69
2018-11-13T13:11:28.328Z,9.69
2018-11-13T13:12:28.354Z,9.69
2018-11-13T13:13:28.381Z,9.72
2018-11-13T13:14:28.416Z,9.67
2018-11-13T13:15:28.443Z,9.76
2018-11-13T13:16:28.475Z,9.72
2018-11-13T13:17:28.502Z,9.72
2018-11-13T13:18:28.529Z,9.76